createdAt,value
2022-12-19T00:01:29.407Z,4.23
2022-12-19T00:02:33.150Z,4.00
2022-12-19T00:03:35.593Z,4.10
2022-12-19T00:04:37.196Z,4.47
2022-12-19T00:05:39.899Z,4.70
2022-12-19T00:06:43.795Z,4.60
2022-12-19T00:07:48.843Z,4.73
2022-12-19T00:08:52.294Z,4.40
2022-12-19T00:09:54.053Z,4.50
2022-12-19T00:10:58.564Z,4.50
2022-12-19T00:12:00.180Z,4.27
2022-12-19T00:13:01.625Z,4.70
2022-12-19T00:14:03.169Z,4.20
2022-12-19T00:15:04.987Z,4.67
2022-12-19T00:16:10.687Z,4.90
2022-12-19T00:17:12.446Z,4.90
2022-12-19T00:18:13.920Z,5.00
2022-12-19T00:19:15.621Z,4.50
2022-12-19T00:20:17.806Z,4.73
2022-12-19T00:21:22.897Z,4.77
2022-12-19T00:22:24.477Z,4.90
2022-12-19T00:23:27.722Z,4.30
2022-12-19T00:24:29.304Z,4.90
2022-12-19T00:25:30.764Z,4.90
2022-12-19T00:26:36.606Z,4.83
2022-12-19T00:27:38.280Z,5.40
2022-12-19T00:28:40.109Z,5.47
2022-12-19T00:29:41.721Z,4.80
2022-12-19T00:30:43.188Z,4.90
2022-12-19T00:31:45.274Z,5.00
2022-12-19T00:32:49.059Z,4.80
2022-12-19T00:33:50.777Z,5.30
2022-12-19T00:34:52.149Z,4.83
2022-12-19T00:36:06.282Z,5.07
2022-12-19T00:37:07.935Z,5.10
2022-12-19T00:38:09.898Z,4.70
2022-12-19T00:39:11.717Z,4.97
2022-12-19T00:40:13.503Z,5.20
2022-12-19T00:41:18.369Z,5.07
2022-12-19T00:42:20.066Z,5.27
2022-12-19T00:43:23.424Z,4.80
2022-12-19T00:44:25.209Z,6.73
2022-12-19T00:45:27.892Z,5.27
2022-12-19T00:46:32.787Z,5.33
2022-12-19T00:47:35.246Z,4.80
2022-12-19T00:48:37.492Z,5.10
2022-12-19T00:49:38.897Z,5.40
2022-12-19T00:50:43.004Z,4.70
2022-12-19T00:51:44.469Z,5.50
2022-12-19T00:52:45.925Z,5.20
2022-12-19T00:53:48.551Z,5.20
2022-12-19T00:54:50.478Z,5.37
2022-12-19T00:55:54.487Z,5.20
2022-12-19T00:56:55.908Z,5.53
2022-12-19T00:57:57.697Z,5.33
2022-12-19T00:59:02.546Z,5.07
2022-12-19T01:00:04.831Z,5.20
2022-12-19T01:01:14.260Z,5.67
2022-12-19T01:02:15.861Z,5.47
2022-12-19T01:03:17.625Z,5.23
2022-12-19T01:04:41.111Z,5.67
2022-12-19T01:05:42.154Z,5.60
2022-12-19T01:06:44.251Z,5.07
2022-12-19T01:07:45.793Z,5.10
2022-12-19T01:08:47.427Z,5.40
2022-12-19T01:09:49.006Z,5.57
2022-12-19T01:10:52.963Z,5.50
2022-12-19T01:12:13.156Z,5.70
2022-12-19T01:13:16.548Z,5.00
2022-12-19T01:14:22.854Z,5.50
2022-12-19T01:15:25.010Z,5.00
2022-12-19T01:16:26.566Z,4.70
2022-12-19T01:17:28.308Z,5.33
2022-12-19T01:18:29.885Z,5.30
2022-12-19T01:19:31.310Z,4.90
2022-12-19T01:20:32.711Z,5.53
2022-12-19T01:21:34.366Z,6.03
2022-12-19T01:22:35.759Z,5.60
2022-12-19T01:23:37.538Z,5.27
2022-12-19T01:24:39.047Z,5.37
2022-12-19T01:25:40.516Z,5.80
2022-12-19T01:26:47.223Z,4.90
2022-12-19T01:27:48.663Z,5.20
2022-12-19T01:28:50.117Z,5.03
2022-12-19T01:29:53.022Z,4.83
2022-12-19T01:30:54.613Z,5.03
2022-12-19T01:31:56.417Z,5.63
2022-12-19T01:32:59.173Z,4.73
2022-12-19T01:34:01.876Z,5.30
2022-12-19T01:35:04.915Z,4.90
2022-12-19T01:36:07.799Z,5.13
2022-12-19T01:37:09.676Z,4.80
2022-12-19T01:38:15.998Z,5.83
2022-12-19T01:39:17.369Z,4.83
2022-12-19T01:40:20.862Z,4.80
2022-12-19T01:41:22.257Z,5.53
2022-12-19T01:42:36.428Z,5.50
2022-12-19T01:44:01.464Z,4.90
2022-12-19T01:45:08.557Z,5.30
2022-12-19T01:46:14.916Z,4.90
2022-12-19T01:47:17.471Z,4.57
2022-12-19T01:48:33.436Z,4.60
2022-12-19T01:49:36.516Z,5.40
2022-12-19T01:50:58.816Z,4.43
2022-12-19T01:52:07.894Z,5.13
2022-12-19T01:53:13.022Z,4.47
2022-12-19T01:54:19.821Z,4.80
2022-12-19T01:55:21.367Z,4.47
2022-12-19T01:56:32.139Z,4.70
2022-12-19T01:57:33.895Z,4.83
2022-12-19T01:58:43.516Z,4.60
2022-12-19T01:59:55.973Z,5.10
2022-12-19T02:00:58.922Z,4.97
2022-12-19T02:02:23.245Z,4.50
2022-12-19T02:03:29.404Z,4.63
2022-12-19T02:04:32.809Z,4.90
2022-12-19T02:05:35.200Z,4.60
2022-12-19T02:06:38.566Z,5.10
2022-12-19T02:07:41.953Z,4.37
2022-12-19T02:08:46.636Z,4.80
2022-12-19T02:09:56.892Z,4.57
2022-12-19T02:11:02.118Z,4.47
2022-12-19T02:12:04.952Z,4.20
2022-12-19T02:13:09.291Z,4.53
2022-12-19T02:14:11.275Z,4.50
2022-12-19T02:15:15.576Z,4.43
2022-12-19T02:16:20.562Z,4.57
2022-12-19T02:17:36.359Z,4.47
2022-12-19T02:19:18.662Z,4.50
2022-12-19T02:20:49.176Z,4.63
2022-12-19T02:22:09.127Z,4.43
2022-12-19T02:23:10.625Z,4.73
2022-12-19T02:24:29.409Z,4.13
2022-12-19T02:25:54.916Z,4.80
2022-12-19T02:27:07.844Z,4.43
2022-12-19T02:28:09.849Z,4.30
2022-12-19T02:29:17.093Z,4.07
2022-12-19T02:30:49.461Z,4.33
2022-12-19T02:31:54.297Z,4.67
2022-12-19T02:33:34.211Z,5.53
2022-12-19T02:34:44.569Z,4.53
2022-12-19T02:38:56.340Z,4.07
2022-12-19T02:40:11.006Z,4.40
2022-12-19T02:41:25.698Z,4.80
2022-12-19T02:42:32.026Z,4.03
2022-12-19T02:43:40.528Z,4.57
2022-12-19T02:44:47.627Z,4.50
2022-12-19T02:45:52.337Z,4.87
2022-12-19T02:46:55.494Z,4.30
2022-12-19T02:48:03.305Z,4.50
2022-12-19T02:49:07.799Z,3.93
2022-12-19T02:50:09.946Z,4.37
2022-12-19T02:51:11.922Z,4.80
2022-12-19T02:52:34.154Z,5.00
2022-12-19T02:53:38.311Z,4.60
2022-12-19T02:54:40.762Z,4.53
2022-12-19T02:55:55.781Z,4.37
2022-12-19T02:57:30.410Z,4.43
2022-12-19T02:58:45.321Z,4.40
2022-12-19T03:00:06.376Z,4.63
2022-12-19T03:01:38.173Z,4.57
2022-12-19T03:03:00.947Z,3.90
2022-12-19T03:04:30.647Z,4.20
2022-12-19T03:05:44.288Z,4.33
2022-12-19T03:06:49.433Z,4.03
2022-12-19T03:08:22.710Z,4.20
2022-12-19T03:09:50.782Z,4.07
2022-12-19T03:11:08.920Z,4.37
2022-12-19T03:12:18.535Z,4.33
2022-12-19T03:13:29.781Z,4.83
2022-12-19T03:14:32.906Z,4.10
2022-12-19T03:15:35.056Z,4.30
2022-12-19T03:16:38.077Z,4.53
2022-12-19T03:17:40.532Z,4.40
2022-12-19T03:18:42.481Z,4.70
2022-12-19T03:19:44.157Z,4.63
2022-12-19T03:21:04.102Z,4.33
2022-12-19T03:22:06.000Z,4.57
2022-12-19T03:23:07.864Z,4.20
2022-12-19T03:24:12.005Z,4.33
2022-12-19T03:25:13.598Z,4.20
2022-12-19T03:26:19.581Z,4.57
2022-12-19T03:27:28.360Z,4.60
2022-12-19T03:28:50.157Z,4.30
2022-12-19T03:29:59.795Z,4.40
2022-12-19T03:31:04.008Z,4.83
2022-12-19T03:32:09.564Z,4.40
2022-12-19T03:33:17.570Z,4.53
2022-12-19T03:34:21.521Z,4.03
2022-12-19T03:35:28.890Z,5.00
2022-12-19T03:36:42.787Z,4.50
2022-12-19T03:37:46.019Z,4.10
2022-12-19T03:38:48.617Z,4.20
2022-12-19T03:39:56.903Z,4.40
2022-12-19T03:40:59.731Z,4.30
2022-12-19T03:42:22.314Z,4.67
2022-12-19T03:43:26.078Z,4.40
2022-12-19T03:44:32.802Z,4.50
2022-12-19T03:45:40.403Z,4.80
2022-12-19T03:46:47.090Z,4.47
2022-12-19T03:47:54.421Z,4.30
2022-12-19T03:48:56.191Z,4.10
2022-12-19T03:49:57.661Z,5.17
2022-12-19T03:51:16.956Z,5.10
2022-12-19T03:52:35.768Z,4.77
2022-12-19T03:53:50.001Z,5.10
2022-12-19T03:55:13.431Z,4.80
2022-12-19T03:56:42.426Z,4.70
2022-12-19T03:57:54.447Z,4.77
2022-12-19T03:59:06.756Z,4.10
2022-12-19T04:00:13.402Z,4.70
2022-12-19T04:01:15.411Z,4.80
2022-12-19T04:02:19.722Z,5.00
2022-12-19T04:03:23.294Z,4.77
2022-12-19T04:04:26.289Z,4.77
2022-12-19T04:05:29.334Z,5.03
2022-12-19T04:06:33.813Z,4.80
2022-12-19T04:07:40.054Z,4.77
2022-12-19T04:08:42.081Z,4.80
2022-12-19T04:09:45.826Z,4.90
2022-12-19T04:10:55.241Z,4.40
2022-12-19T04:12:04.696Z,4.57
2022-12-19T04:13:11.953Z,5.03
2022-12-19T04:14:20.417Z,4.50
2022-12-19T04:15:45.957Z,5.30
2022-12-19T04:16:55.664Z,4.93
2022-12-19T04:18:00.166Z,5.00
2022-12-19T04:19:31.542Z,4.53
2022-12-19T04:20:36.667Z,4.73
2022-12-19T04:21:47.134Z,4.73
2022-12-19T04:23:00.918Z,4.70
2022-12-19T04:24:11.178Z,4.40
2022-12-19T04:25:19.109Z,4.97
2022-12-19T04:26:21.977Z,5.53
2022-12-19T04:27:24.168Z,4.83
2022-12-19T04:28:38.959Z,4.77
2022-12-19T04:29:41.404Z,5.23
2022-12-19T04:30:45.070Z,4.97
2022-12-19T04:31:46.922Z,5.00
2022-12-19T04:32:50.302Z,4.80
2022-12-19T04:33:51.684Z,4.90
2022-12-19T04:34:53.115Z,5.10
2022-12-19T04:35:54.847Z,4.77
2022-12-19T04:36:56.315Z,5.60
2022-12-19T04:37:57.734Z,4.90
2022-12-19T04:38:59.259Z,4.90
2022-12-19T04:40:00.909Z,4.77
2022-12-19T04:41:02.342Z,4.80
2022-12-19T04:42:03.809Z,4.90
2022-12-19T04:43:05.225Z,4.77
2022-12-19T04:44:06.643Z,4.80
2022-12-19T04:45:09.373Z,4.80
2022-12-19T04:46:10.881Z,4.80
2022-12-19T04:47:12.407Z,4.20
2022-12-19T04:48:14.089Z,4.87
2022-12-19T04:49:15.544Z,4.57
2022-12-19T04:50:16.982Z,5.10
2022-12-19T04:51:18.465Z,4.40
2022-12-19T04:52:19.908Z,5.30
2022-12-19T04:53:21.549Z,4.70
2022-12-19T04:54:22.981Z,4.97
2022-12-19T04:55:24.618Z,5.20
2022-12-19T04:56:26.129Z,4.93
2022-12-19T04:57:31.726Z,4.50
2022-12-19T04:58:33.874Z,5.17
2022-12-19T04:59:35.328Z,5.60
2022-12-19T05:00:36.811Z,5.03
2022-12-19T05:01:38.305Z,4.77
2022-12-19T05:02:40.308Z,4.77
2022-12-19T05:03:41.976Z,4.87
2022-12-19T05:04:43.718Z,4.47
2022-12-19T05:05:45.148Z,4.53
2022-12-19T05:06:46.634Z,5.53
2022-12-19T05:07:48.144Z,4.90
2022-12-19T05:08:49.562Z,4.93
2022-12-19T05:09:50.945Z,4.70
2022-12-19T05:10:52.806Z,5.17
2022-12-19T05:11:54.231Z,4.63
2022-12-19T05:12:55.672Z,5.20
2022-12-19T05:13:59.160Z,4.97
2022-12-19T05:15:00.575Z,5.63
2022-12-19T05:16:05.793Z,6.30
2022-12-19T05:17:07.303Z,5.70
2022-12-19T05:18:10.156Z,5.27
2022-12-19T05:19:11.858Z,5.57
2022-12-19T05:20:13.328Z,4.93
2022-12-19T05:21:14.896Z,5.20
2022-12-19T05:22:16.321Z,5.27
2022-12-19T05:23:18.019Z,5.10
2022-12-19T05:24:19.947Z,5.07
2022-12-19T05:25:21.581Z,4.60
2022-12-19T05:26:22.991Z,5.33
2022-12-19T05:27:24.375Z,4.70
2022-12-19T05:28:25.948Z,5.40
2022-12-19T05:29:27.366Z,4.77
2022-12-19T05:30:28.813Z,5.17
2022-12-19T05:31:30.343Z,5.27
2022-12-19T05:32:32.739Z,5.83
2022-12-19T05:33:35.215Z,5.40
2022-12-19T05:34:36.687Z,5.00
2022-12-19T05:35:38.244Z,5.80
2022-12-19T05:36:40.011Z,5.33
2022-12-19T05:37:41.553Z,5.53
2022-12-19T05:38:43.133Z,5.27
2022-12-19T05:39:44.579Z,5.20
2022-12-19T05:40:46.028Z,5.43
2022-12-19T05:41:49.127Z,5.40
2022-12-19T05:42:51.032Z,5.57
2022-12-19T05:43:54.979Z,5.83
2022-12-19T05:44:56.412Z,5.93
2022-12-19T05:45:58.310Z,5.50
2022-12-19T05:46:59.778Z,6.13
2022-12-19T05:48:01.708Z,5.60
2022-12-19T05:49:03.239Z,6.13
2022-12-19T05:50:05.811Z,5.23
2022-12-19T05:51:07.456Z,5.97
2022-12-19T05:52:11.884Z,5.93
2022-12-19T05:53:13.824Z,5.30
2022-12-19T05:54:15.875Z,5.40
2022-12-19T05:55:17.827Z,6.30
2022-12-19T05:56:21.811Z,6.37
2022-12-19T05:57:23.876Z,6.27
2022-12-19T05:58:25.324Z,5.83
2022-12-19T05:59:26.781Z,5.80
2022-12-19T06:00:28.523Z,5.90
2022-12-19T06:01:30.362Z,8.97
2022-12-19T06:02:35.393Z,6.17
2022-12-19T06:03:37.518Z,5.80
2022-12-19T06:04:38.955Z,6.13
2022-12-19T06:05:40.501Z,7.20
2022-12-19T06:06:41.942Z,7.07
2022-12-19T06:07:43.410Z,6.30
2022-12-19T06:08:44.943Z,6.90
2022-12-19T06:09:46.380Z,7.23
2022-12-19T06:10:47.865Z,6.93
2022-12-19T06:11:49.447Z,7.70
2022-12-19T06:12:51.480Z,7.13
2022-12-19T06:13:53.634Z,6.73
2022-12-19T06:14:55.072Z,6.40
2022-12-19T06:16:12.851Z,6.80
2022-12-19T06:17:14.441Z,7.20
2022-12-19T06:18:15.876Z,6.30
2022-12-19T06:19:20.673Z,7.20
2022-12-19T06:20:22.940Z,6.83
2022-12-19T06:21:24.863Z,7.20
2022-12-19T06:22:26.293Z,7.40
2022-12-19T06:23:31.799Z,7.10
2022-12-19T06:24:33.240Z,6.83
2022-12-19T06:25:34.678Z,6.97
2022-12-19T06:26:36.492Z,7.17
2022-12-19T06:27:38.219Z,6.90
2022-12-19T06:28:40.126Z,6.47
2022-12-19T06:29:41.553Z,6.60
2022-12-19T06:30:43.019Z,6.33
2022-12-19T06:31:44.931Z,7.13
2022-12-19T06:32:46.330Z,6.90
2022-12-19T06:33:48.128Z,7.43
2022-12-19T06:35:03.937Z,7.40
2022-12-19T06:36:10.242Z,8.30
2022-12-19T06:37:12.096Z,7.13
2022-12-19T06:38:13.642Z,7.10
2022-12-19T06:39:16.154Z,6.67
2022-12-19T06:40:37.598Z,7.20
2022-12-19T06:41:57.623Z,6.90
2022-12-19T06:42:59.469Z,6.07
2022-12-19T06:44:03.104Z,6.53
2022-12-19T06:45:04.966Z,6.27
2022-12-19T06:46:07.013Z,6.63
2022-12-19T06:47:08.620Z,7.30
2022-12-19T06:48:10.076Z,6.63
2022-12-19T06:49:11.938Z,6.50
2022-12-19T06:50:13.820Z,6.67
2022-12-19T06:51:15.619Z,6.53
2022-12-19T06:52:17.766Z,6.40
2022-12-19T06:53:19.562Z,6.30
2022-12-19T06:54:21.691Z,6.97
2022-12-19T06:55:23.164Z,6.73
2022-12-19T06:56:25.055Z,6.97
2022-12-19T06:57:26.956Z,6.40
2022-12-19T06:58:28.413Z,6.70
2022-12-19T06:59:30.080Z,6.80
2022-12-19T07:00:34.996Z,7.20
2022-12-19T07:02:00.003Z,7.03
2022-12-19T07:03:04.057Z,8.03
2022-12-19T07:04:06.956Z,7.37
2022-12-19T07:05:09.545Z,6.80
2022-12-19T07:06:11.588Z,6.50
2022-12-19T07:07:13.525Z,7.17
2022-12-19T07:08:14.978Z,6.77
2022-12-19T07:09:17.890Z,6.57
2022-12-19T07:10:19.605Z,6.90
2022-12-19T07:11:21.353Z,6.90
2022-12-19T07:12:22.934Z,7.03
2022-12-19T07:13:24.884Z,6.87
2022-12-19T07:14:26.481Z,7.33
2022-12-19T07:15:30.358Z,6.73
2022-12-19T07:16:32.172Z,6.80
2022-12-19T07:17:33.859Z,7.13
2022-12-19T07:18:40.788Z,7.20
2022-12-19T07:19:42.750Z,6.60
2022-12-19T07:20:45.373Z,6.60
2022-12-19T07:21:47.748Z,6.77
2022-12-19T07:22:49.689Z,7.23
2022-12-19T07:23:51.516Z,6.57
2022-12-19T07:24:54.194Z,6.70
2022-12-19T07:25:55.763Z,6.97
2022-12-19T07:26:57.918Z,6.30
2022-12-19T07:28:00.207Z,6.53
2022-12-19T07:29:02.339Z,6.60
2022-12-19T07:30:07.930Z,6.80
2022-12-19T07:31:10.134Z,6.60
2022-12-19T07:32:11.550Z,6.27
2022-12-19T07:33:18.274Z,6.67
2022-12-19T07:34:22.569Z,6.30
2022-12-19T07:35:24.550Z,6.60
2022-12-19T07:36:26.056Z,6.67
2022-12-19T07:37:28.082Z,6.80
2022-12-19T07:38:29.780Z,7.50
2022-12-19T07:39:31.265Z,8.00
2022-12-19T07:40:33.927Z,7.40
2022-12-19T07:41:38.806Z,6.83
2022-12-19T07:42:40.286Z,6.60
2022-12-19T07:43:41.670Z,6.90
2022-12-19T07:44:43.081Z,6.73
2022-12-19T07:45:44.554Z,7.03
2022-12-19T07:46:46.065Z,6.40
2022-12-19T07:47:47.970Z,7.07
2022-12-19T07:48:49.652Z,6.83
2022-12-19T07:49:51.030Z,6.77
2022-12-19T07:50:52.708Z,6.90
2022-12-19T07:51:54.094Z,6.43
2022-12-19T07:52:55.765Z,6.67
2022-12-19T07:53:57.188Z,6.20
2022-12-19T07:54:58.638Z,6.53
2022-12-19T07:56:00.045Z,6.87
2022-12-19T07:57:02.493Z,6.77
2022-12-19T07:58:04.289Z,6.63
2022-12-19T07:59:06.282Z,6.70
2022-12-19T08:00:08.644Z,6.60
2022-12-19T08:01:14.489Z,8.40
2022-12-19T08:02:16.025Z,8.07
2022-12-19T08:03:17.655Z,8.10
2022-12-19T08:04:19.183Z,8.13
2022-12-19T08:05:20.604Z,7.30
2022-12-19T08:06:23.595Z,7.67
2022-12-19T08:07:25.042Z,7.67
2022-12-19T08:08:28.055Z,8.50
2022-12-19T08:09:29.650Z,7.00
2022-12-19T08:10:31.146Z,7.63
2022-12-19T08:11:32.701Z,7.10
2022-12-19T08:12:34.444Z,6.83
2022-12-19T08:13:40.819Z,6.93
2022-12-19T08:14:46.118Z,7.17
2022-12-19T08:15:47.553Z,7.10
2022-12-19T08:17:19.345Z,7.83
2022-12-19T08:18:11.048Z,6.97
2022-12-19T08:19:12.543Z,6.20
2022-12-19T08:20:14.386Z,6.30
2022-12-19T08:21:16.458Z,6.00
2022-12-19T08:22:17.986Z,6.30
2022-12-19T08:23:19.443Z,5.93
2022-12-19T08:24:23.506Z,6.30
2022-12-19T08:25:24.969Z,6.47
2022-12-19T08:26:30.032Z,6.17
2022-12-19T08:27:34.872Z,6.80
2022-12-19T08:28:37.108Z,5.93
2022-12-19T08:29:38.631Z,6.10
2022-12-19T08:30:40.879Z,6.20
2022-12-19T08:31:42.909Z,6.60
2022-12-19T08:32:45.218Z,6.37
2022-12-19T08:33:47.682Z,6.00
2022-12-19T08:34:50.037Z,6.40
2022-12-19T08:35:52.103Z,6.20
2022-12-19T08:36:53.968Z,6.17
2022-12-19T08:37:55.464Z,6.23
2022-12-19T08:38:56.899Z,6.30
2022-12-19T08:39:58.471Z,6.20
2022-12-19T08:41:00.011Z,5.80
2022-12-19T08:42:01.607Z,6.03
2022-12-19T08:43:03.058Z,5.97
2022-12-19T08:44:04.561Z,5.90
2022-12-19T08:45:06.607Z,6.33
2022-12-19T08:46:09.269Z,6.27
2022-12-19T08:47:11.016Z,5.50
2022-12-19T08:48:12.457Z,5.87
2022-12-19T08:49:13.898Z,5.97
2022-12-19T08:50:15.395Z,5.70
2022-12-19T08:51:17.471Z,5.60
2022-12-19T08:52:19.008Z,6.13
2022-12-19T08:53:26.088Z,5.43
2022-12-19T08:54:28.204Z,5.57
2022-12-19T08:55:29.724Z,5.70
2022-12-19T08:56:33.079Z,6.00
2022-12-19T08:57:34.785Z,6.30
2022-12-19T08:58:36.222Z,7.20
2022-12-19T08:59:37.864Z,6.50
2022-12-19T09:00:40.093Z,6.50
2022-12-19T09:01:41.693Z,6.07
2022-12-19T09:02:43.489Z,5.40
2022-12-19T09:04:10.029Z,5.87
2022-12-19T09:06:04.030Z,5.60
2022-12-19T09:06:30.146Z,5.60
2022-12-19T09:07:31.549Z,5.30
2022-12-19T09:08:35.889Z,5.43
2022-12-19T09:09:37.436Z,4.80
2022-12-19T09:10:39.074Z,5.00
2022-12-19T09:11:47.931Z,5.47
2022-12-19T09:12:55.770Z,5.00
2022-12-19T09:13:59.842Z,5.50
2022-12-19T09:15:01.257Z,5.20
2022-12-19T09:16:08.384Z,4.93
2022-12-19T09:17:10.258Z,6.20
2022-12-19T09:18:11.976Z,5.30
2022-12-19T09:19:15.614Z,5.03
2022-12-19T09:20:22.939Z,4.30
2022-12-19T09:21:26.970Z,4.50
2022-12-19T09:22:29.594Z,4.57
2022-12-19T09:23:34.177Z,4.20
2022-12-19T09:24:35.886Z,4.50
2022-12-19T09:25:37.546Z,4.60
2022-12-19T09:26:39.528Z,4.43
2022-12-19T09:28:17.586Z,4.87
2022-12-19T09:29:06.784Z,5.00
2022-12-19T09:30:21.850Z,4.73
2022-12-19T09:31:25.305Z,4.87
2022-12-19T09:32:27.525Z,5.03
2022-12-19T09:33:30.705Z,4.87
2022-12-19T09:34:36.797Z,4.90
2022-12-19T09:35:40.135Z,5.23
2022-12-19T09:36:41.902Z,5.17
2022-12-19T09:37:43.640Z,5.00
2022-12-19T09:38:45.412Z,4.10
2022-12-19T09:39:47.557Z,5.10
2022-12-19T09:41:23.737Z,5.07
2022-12-19T09:42:44.511Z,4.67
2022-12-19T09:43:48.915Z,4.23
2022-12-19T09:45:32.565Z,4.20
2022-12-19T09:46:47.895Z,3.97
2022-12-19T09:47:57.681Z,4.90
2022-12-19T09:49:02.069Z,4.00
2022-12-19T09:50:25.825Z,4.00
2022-12-19T09:51:35.697Z,4.00
2022-12-19T09:52:50.125Z,3.93
2022-12-19T09:54:18.778Z,4.27
2022-12-19T09:55:22.461Z,4.47
2022-12-19T09:56:29.071Z,3.87
2022-12-19T09:57:52.273Z,4.23
2022-12-19T09:59:00.980Z,3.83
2022-12-19T10:00:14.863Z,3.40
2022-12-19T10:01:32.478Z,3.73
2022-12-19T10:02:48.650Z,3.30
2022-12-19T10:04:11.876Z,3.80
2022-12-19T10:05:45.547Z,4.03
2022-12-19T10:07:20.438Z,4.00
2022-12-19T10:08:20.025Z,3.87
2022-12-19T10:10:25.521Z,3.63
2022-12-19T10:12:33.478Z,3.90
2022-12-19T10:12:51.352Z,3.90
2022-12-19T10:14:06.363Z,3.77
2022-12-19T10:15:20.365Z,3.70
2022-12-19T10:16:29.708Z,4.17
2022-12-19T10:17:56.549Z,3.97
2022-12-19T10:19:03.006Z,4.13
2022-12-19T10:20:30.085Z,3.87
2022-12-19T10:22:16.169Z,4.03
2022-12-19T10:23:19.513Z,3.57
2022-12-19T10:24:34.734Z,3.17
2022-12-19T10:25:58.056Z,3.50
2022-12-19T10:27:13.212Z,3.23
2022-12-19T10:28:29.537Z,3.43
2022-12-19T10:29:51.915Z,3.53
2022-12-19T10:31:22.201Z,3.50
2022-12-19T10:33:01.958Z,3.60
2022-12-19T10:34:21.942Z,3.17
2022-12-19T10:35:35.839Z,3.07
2022-12-19T10:38:35.496Z,3.53
2022-12-19T10:39:51.399Z,3.53
2022-12-19T10:41:16.403Z,4.50
2022-12-19T10:42:33.945Z,4.60
2022-12-19T10:43:57.451Z,3.90
2022-12-19T10:45:02.715Z,3.87
2022-12-19T10:46:17.153Z,3.90
2022-12-19T10:47:18.907Z,7.13
2022-12-19T10:48:30.784Z,4.57
2022-12-19T10:49:33.305Z,5.20
2022-12-19T10:50:34.696Z,4.43
2022-12-19T10:51:36.139Z,4.63
2022-12-19T10:52:54.622Z,3.80
2022-12-19T10:53:58.842Z,5.60
2022-12-19T10:55:00.860Z,4.93
2022-12-19T10:56:13.486Z,4.07
2022-12-19T10:57:23.697Z,3.70
2022-12-19T10:58:36.522Z,4.30
2022-12-19T10:59:37.978Z,4.17
2022-12-19T11:00:54.654Z,3.50
2022-12-19T11:02:00.867Z,3.33
2022-12-19T11:03:14.495Z,3.63
2022-12-19T11:04:29.771Z,3.93
2022-12-19T11:05:48.477Z,3.40
2022-12-19T11:07:04.995Z,3.40
2022-12-19T11:08:06.679Z,3.00
2022-12-19T11:09:38.425Z,3.23
2022-12-19T11:12:25.651Z,3.17
2022-12-19T11:16:06.757Z,3.17
2022-12-19T11:19:23.899Z,4.00
2022-12-19T11:19:30.224Z,3.50
2022-12-19T11:20:37.276Z,3.13
2022-12-19T11:27:07.981Z,3.20
2022-12-19T11:29:17.342Z,3.57
2022-12-19T11:29:32.003Z,3.30
2022-12-19T11:29:38.651Z,3.33
2022-12-19T11:29:42.049Z,3.33
2022-12-19T11:30:46.767Z,3.77
2022-12-19T11:30:47.999Z,3.70
2022-12-19T11:30:59.413Z,3.50
2022-12-19T11:33:23.757Z,3.10
2022-12-19T11:34:27.627Z,3.30
2022-12-19T11:35:37.210Z,3.03
2022-12-19T11:36:49.719Z,3.03
2022-12-19T11:37:57.912Z,3.20
2022-12-19T11:38:59.877Z,3.40
2022-12-19T11:40:17.415Z,3.30
2022-12-19T11:41:41.461Z,3.23
2022-12-19T11:43:42.026Z,3.13
2022-12-19T11:44:40.139Z,2.80
2022-12-19T11:46:00.424Z,2.80
2022-12-19T11:47:26.553Z,3.07
2022-12-19T11:48:48.638Z,2.83
2022-12-19T11:50:01.389Z,2.67
2022-12-19T11:51:27.329Z,2.80
2022-12-19T11:54:16.009Z,3.00
2022-12-19T11:55:23.691Z,3.37
2022-12-19T11:56:27.840Z,3.00
2022-12-19T11:57:29.502Z,3.03
2022-12-19T11:58:32.854Z,3.07
2022-12-19T11:59:38.227Z,3.40
2022-12-19T12:01:05.276Z,2.97
2022-12-19T12:02:30.798Z,3.03
2022-12-19T12:04:01.687Z,3.13
2022-12-19T12:05:24.147Z,3.00
2022-12-19T12:06:34.166Z,3.07
2022-12-19T12:08:09.061Z,2.87
2022-12-19T12:13:06.662Z,3.40
2022-12-19T12:16:06.725Z,3.03
2022-12-19T12:20:34.890Z,3.00
2022-12-19T12:21:08.037Z,2.80
2022-12-19T12:25:56.200Z,2.70
2022-12-19T12:28:42.780Z,2.80
2022-12-19T12:31:02.048Z,2.77
2022-12-19T12:31:15.116Z,3.17
2022-12-19T12:31:17.979Z,3.10
2022-12-19T12:31:22.236Z,3.10
2022-12-19T12:31:49.434Z,2.80
2022-12-19T12:31:58.819Z,3.10
2022-12-19T12:32:02.056Z,3.40
2022-12-19T12:32:02.747Z,3.10
2022-12-19T12:35:40.505Z,3.23
2022-12-19T12:35:50.924Z,3.40
2022-12-19T12:35:56.309Z,3.10
2022-12-19T12:38:33.046Z,3.60
2022-12-19T12:39:52.447Z,3.93
2022-12-19T12:41:48.078Z,4.30
2022-12-19T12:43:17.333Z,4.50
2022-12-19T12:44:33.037Z,3.80
2022-12-19T12:45:36.301Z,3.93
2022-12-19T12:46:50.012Z,3.97
2022-12-19T12:47:53.302Z,4.13
2022-12-19T12:49:02.634Z,3.93
2022-12-19T12:50:07.398Z,4.03
2022-12-19T12:51:10.422Z,3.33
2022-12-19T12:52:19.842Z,3.47
2022-12-19T12:53:25.126Z,3.13
2022-12-19T12:54:34.580Z,3.73
2022-12-19T12:55:41.403Z,3.33
2022-12-19T12:56:45.608Z,3.90
2022-12-19T12:57:47.452Z,3.37
2022-12-19T12:58:48.872Z,5.50
2022-12-19T13:00:28.813Z,4.50
2022-12-19T13:01:35.669Z,4.70
2022-12-19T13:02:37.345Z,5.80
2022-12-19T13:03:42.803Z,4.73
2022-12-19T13:04:59.753Z,3.90
2022-12-19T13:06:32.581Z,4.80
2022-12-19T13:07:43.760Z,4.20
2022-12-19T13:08:49.850Z,3.73
2022-12-19T13:10:07.792Z,4.33
2022-12-19T13:11:12.298Z,4.20
2022-12-19T13:12:46.680Z,3.80
2022-12-19T13:13:58.013Z,3.63
2022-12-19T13:15:27.255Z,4.40
2022-12-19T13:16:43.782Z,3.87
2022-12-19T13:18:29.101Z,4.00
2022-12-19T13:19:36.093Z,3.60
2022-12-19T13:20:47.061Z,3.63
2022-12-19T13:22:15.845Z,4.10
2022-12-19T13:23:34.003Z,3.60
2022-12-19T13:24:40.647Z,3.00
2022-12-19T13:25:42.010Z,3.30
2022-12-19T13:26:50.194Z,3.10
2022-12-19T13:28:14.007Z,3.40
2022-12-19T13:29:56.694Z,2.80
2022-12-19T13:31:18.999Z,3.00
2022-12-19T13:32:23.179Z,3.03
2022-12-19T13:33:25.603Z,2.90
2022-12-19T13:34:36.845Z,3.60
2022-12-19T13:36:49.304Z,3.47
2022-12-19T13:39:54.908Z,3.40
2022-12-19T13:39:59.350Z,3.33
2022-12-19T13:40:07.473Z,3.53
2022-12-19T13:41:48.711Z,3.20
2022-12-19T13:43:24.247Z,3.40
2022-12-19T13:44:26.473Z,2.93
2022-12-19T13:45:29.518Z,3.57
2022-12-19T13:46:43.153Z,2.97
2022-12-19T13:47:45.651Z,3.40
2022-12-19T13:48:50.997Z,3.30
2022-12-19T13:49:52.789Z,3.20
2022-12-19T13:50:54.990Z,3.40
2022-12-19T13:51:58.220Z,3.27
2022-12-19T13:52:59.963Z,3.33
2022-12-19T13:54:01.567Z,3.00
2022-12-19T13:55:03.374Z,3.40
2022-12-19T13:56:12.669Z,3.17
2022-12-19T13:57:28.604Z,3.47
2022-12-19T13:58:39.494Z,3.47
2022-12-19T13:59:59.237Z,3.57
2022-12-19T14:01:08.444Z,3.33
2022-12-19T14:02:44.165Z,2.70
2022-12-19T14:03:48.669Z,2.70
2022-12-19T14:04:50.241Z,2.70
2022-12-19T14:06:16.939Z,2.80
2022-12-19T14:07:34.863Z,3.20
2022-12-19T14:08:39.662Z,3.90
2022-12-19T14:11:27.380Z,3.37
2022-12-19T14:11:33.864Z,3.10
2022-12-19T14:13:57.725Z,4.27
2022-12-19T14:14:36.205Z,3.97
2022-12-19T14:15:41.164Z,3.30
2022-12-19T14:16:44.919Z,2.63
2022-12-19T14:17:50.187Z,2.80
2022-12-19T14:18:51.928Z,3.37
2022-12-19T14:19:53.551Z,2.90
2022-12-19T14:22:11.380Z,2.90
2022-12-19T14:22:39.394Z,2.80
2022-12-19T14:23:43.485Z,3.10
2022-12-19T14:26:06.571Z,2.90
2022-12-19T14:28:17.342Z,3.30
2022-12-19T14:28:25.081Z,3.30
2022-12-19T14:30:27.237Z,2.83
2022-12-19T14:31:19.208Z,3.17
2022-12-19T14:33:43.353Z,3.10
2022-12-19T14:34:11.090Z,2.90
2022-12-19T14:36:07.556Z,3.13
2022-12-19T14:36:52.678Z,3.27
2022-12-19T14:39:19.835Z,2.90
2022-12-19T14:39:35.155Z,2.80
2022-12-19T14:40:43.305Z,2.60
2022-12-19T14:43:55.757Z,3.63
2022-12-19T14:52:51.730Z,3.13
2022-12-19T14:53:51.145Z,2.63
2022-12-19T14:54:03.652Z,2.90
2022-12-19T14:54:23.410Z,2.70
2022-12-19T14:54:24.630Z,2.70
2022-12-19T14:54:32.368Z,3.03
2022-12-19T14:54:34.717Z,2.73
2022-12-19T14:56:46.754Z,3.00
2022-12-19T14:58:50.892Z,3.03
2022-12-19T14:59:04.591Z,2.80
2022-12-19T15:01:08.165Z,2.90
2022-12-19T15:01:58.153Z,2.97
2022-12-19T15:03:02.318Z,2.97
2022-12-19T15:04:52.889Z,3.07
2022-12-19T15:05:39.223Z,3.40
2022-12-19T15:07:09.518Z,2.90
2022-12-19T15:08:10.990Z,2.70
2022-12-19T15:11:07.499Z,3.00
2022-12-19T15:11:08.239Z,3.30
2022-12-19T15:14:51.166Z,2.90
2022-12-19T15:14:51.841Z,2.77
2022-12-19T15:15:36.038Z,3.40
2022-12-19T15:16:37.663Z,3.00
2022-12-19T15:17:45.742Z,3.57
2022-12-19T15:18:48.421Z,3.60
2022-12-19T15:19:51.449Z,3.30
2022-12-19T15:20:57.867Z,3.30
2022-12-19T15:21:59.294Z,3.20
2022-12-19T15:23:00.714Z,3.20
2022-12-19T15:24:02.366Z,3.63
2022-12-19T15:25:04.360Z,3.50
2022-12-19T15:26:11.708Z,3.27
2022-12-19T15:27:15.877Z,3.43
2022-12-19T15:28:19.508Z,3.77
2022-12-19T15:29:22.424Z,3.57
2022-12-19T15:30:25.988Z,3.43
2022-12-19T15:31:44.210Z,3.87
2022-12-19T15:32:45.837Z,4.03
2022-12-19T15:34:32.212Z,3.57
2022-12-19T15:35:19.041Z,3.83
2022-12-19T15:36:20.515Z,3.80